^^
Datos históricos de la estación: Murcia-Puente Tocinos
Diario Informe para Agosto 13, 2019 Unidades:  Ingés    Métrico   Ambas
Diario Semanal Mensual Anual
  Máxima: Mínima: Promedio:
Temperatura: 63.9 °F 37.9 °F 48.9 °F
Punto de rocio: 39 °F 27.1 °F 31.8 °F
Humedad: 72% 30% 54%
Velocidad viento: 8.1mph 0mph 4.7mph
Racha viento: 17.3mph - -
Viento- - SSO
Presión: 30.3 in 30.2 in -
Precipitación: 0 in    
 
 
Tabla de datos para Agosto 13, 2019
Hora Temperatura Punto de rocio Presión Viento Velocidad viento Racha viento Humedad Intensidad lluvia(por hora) Nubes
00:04 42.8 °F 31.5 °F 30.3 in SSO 4.3 mph 6 mph 64% 0 in
00:09 42.8 °F 31.5 °F 30.3 in SSO 3.7 mph 5 mph 64% 0 in
00:14 42.6 °F 31.3 °F 30.3 in Sur 3.1 mph 5 mph 64% 0 in
00:19 42.3 °F 31.1 °F 30.3 in Sur 3 mph 5 mph 64.5% 0 in
00:24 41.9 °F 31.1 °F 30.3 in SSE 2.9 mph 5 mph 65.4% 0 in
00:29 41.4 °F 30.9 °F 30.3 in SSE 3 mph 5.8 mph 66.2% 0 in
00:34 41.2 °F 31.3 °F 30.3 in Sur 3.1 mph 6 mph 67.4% 0 in
00:39 41.2 °F 31.5 °F 30.3 in Sur 3.4 mph 6.9 mph 68% 0 in
00:44 41.4 °F 31.6 °F 30.3 in Sur 3.6 mph 8.1 mph 68% 0 in
00:49 41.7 °F 31.8 °F 30.3 in Sur 4 mph 8 mph 68% 0 in
00:54 41.7 °F 31.8 °F 30.3 in Sur 4.3 mph 5 mph 68% 0 in
00:59 41.7 °F 31.8 °F 30.3 in Sur 3.2 mph 5.8 mph 68% 0 in
01:04 41.5 °F 31.8 °F 30.3 in Sur 2.4 mph 6 mph 68% 0 in
01:09 41.5 °F 31.8 °F 30.3 in Sur 2.9 mph 5 mph 68% 0 in
01:14 41.5 °F 31.6 °F 30.3 in Sur 3.1 mph 5 mph 68% 0 in
01:19 41.4 °F 31.8 °F 30.3 in Sur 3.1 mph 6.9 mph 68.5% 0 in
01:24 41.4 °F 31.8 °F 30.3 in Sur 3.1 mph 7 mph 69% 0 in
01:29 41 °F 31.6 °F 30.3 in SSE 3.9 mph 6.9 mph 69% 0 in
01:34 40.6 °F 31.5 °F 30.3 in Sur 4.3 mph 7 mph 69.2% 0 in
01:39 40.5 °F 31.5 °F 30.3 in SSE 4.3 mph 8.1 mph 70% 0 in
01:44 39.9 °F 31.3 °F 30.3 in Sur 4.3 mph 8 mph 70.6% 0 in
01:49 39.6 °F 31.1 °F 30.3 in Sur 4.8 mph 9.7 mph 71.4% 0 in
01:54 39.2 °F 30.9 °F 30.3 in Sur 5.2 mph 10 mph 72% 0 in
01:59 39 °F 30.7 °F 30.3 in Sur 6 mph 10 mph 71.7% 0 in
02:04 39 °F 30.4 °F 30.3 in Sur 6.4 mph 9.2 mph 70.7% 0 in
02:09 39 °F 29.8 °F 30.3 in Sur 6.1 mph 9 mph 69.5% 0 in
02:14 39 °F 29.3 °F 30.3 in Sur 5.9 mph 10.4 mph 67.8% 0 in
02:19 39.2 °F 28.8 °F 30.3 in SSO 6.5 mph 10.4 mph 65.7% 0 in
02:24 39.6 °F 28.8 °F 30.3 in SSO 6.9 mph 10 mph 64.9% 0 in
02:29 39.7 °F 29.1 °F 30.3 in SSO 6.3 mph 9 mph 65.2% 0 in
02:34 40.1 °F 29.7 °F 30.3 in SSO 5.9 mph 9.2 mph 66.1% 0 in
02:39 40.5 °F 30.4 °F 30.3 in SSO 5.9 mph 9.2 mph 67% 0 in
02:44 40.6 °F 30.6 °F 30.3 in SSO 5.9 mph 10 mph 67% 0 in
02:49 40.8 °F 30.7 °F 30.3 in SSO 5.9 mph 10.4 mph 67% 0 in
02:54 40.8 °F 30.7 °F 30.3 in SSO 5.9 mph 9 mph 67% 0 in
02:59 40.6 °F 30.6 °F 30.3 in SO 5 mph 8 mph 67% 0 in
03:04 40.5 °F 30.4 °F 30.3 in SO 4.7 mph 7 mph 67% 0 in
03:09 40.3 °F 30.6 °F 30.3 in SO 4.7 mph 8.1 mph 67.9% 0 in
03:14 39.9 °F 30.2 °F 30.3 in SO 4.7 mph 8.1 mph 68% 0 in
03:19 39.9 °F 30.2 °F 30.3 in OSO 4.5 mph 8 mph 68% 0 in
03:24 39.7 °F 30 °F 30.3 in SSO 4.3 mph 8.1 mph 68.1% 0 in
03:29 39.7 °F 30.2 °F 30.3 in SSO 4.1 mph 9.2 mph 68.5% 0 in
03:34 39.7 °F 30 °F 30.3 in SSO 4 mph 9 mph 68% 0 in
03:39 39.7 °F 30 °F 30.3 in SSO 4.5 mph 9.2 mph 68% 0 in
03:44 39.9 °F 30 °F 30.3 in SSO 4.7 mph 12.5 mph 67.1% 0 in
03:49 40.3 °F 29.7 °F 30.3 in SSO 5.8 mph 13 mph 66% 0 in
03:54 39.9 °F 29.5 °F 30.3 in Sur 6.4 mph 12 mph 66% 0 in
03:59 39.6 °F 29.5 °F 30.3 in SSO 6.8 mph 12 mph 67% 0 in
04:04 39.4 °F 29.3 °F 30.3 in SSO 6.9 mph 10 mph 67% 0 in
04:09 39.4 °F 29.3 °F 30.3 in SO 5.8 mph 8 mph 67% 0 in
04:14 39.4 °F 29.1 °F 30.3 in SO 5.2 mph 8.1 mph 66.5% 0 in
04:19 39.4 °F 28.8 °F 30.3 in SSO 4.6 mph 8.1 mph 65.4% 0 in
04:24 39.4 °F 28.8 °F 30.3 in SSO 4.3 mph 8.1 mph 65.2% 0 in
04:29 39.4 °F 28.9 °F 30.3 in SSO 4.5 mph 8 mph 66% 0 in
04:34 39.2 °F 28.8 °F 30.3 in SSO 4.7 mph 7.4 mph 66% 0 in
04:39 39.2 °F 29.1 °F 30.3 in Sur 5 mph 8.1 mph 66.7% 0 in
04:44 39 °F 29.1 °F 30.3 in Sur 5.2 mph 8 mph 67% 0 in
04:49 39 °F 28.9 °F 30.3 in Sur 4.6 mph 7.4 mph 67% 0 in
04:54 38.7 °F 28.9 °F 30.3 in Sur 4.3 mph 8.1 mph 67.6% 0 in
04:59 38.5 °F 28.9 °F 30.3 in Sur 4.9 mph 8.1 mph 68% 0 in
05:04 38.3 °F 28.8 °F 30.3 in Sur 5.2 mph 8.1 mph 68% 0 in
05:09 38.1 °F 28.6 °F 30.3 in Sur 5.3 mph 8.5 mph 68% 0 in
05:14 38.1 °F 28.6 °F 30.3 in Sur 5.4 mph 10.4 mph 68% 0 in
05:19 37.9 °F 28.4 °F 30.3 in Sur 5.7 mph 10.4 mph 68% 0 in
05:24 38.1 °F 28.6 °F 30.3 in SSO 5.9 mph 10.4 mph 68% 0 in
05:29 38.1 °F 28.2 °F 30.3 in SSO 6.5 mph 10.7 mph 67.4% 0 in
05:34 38.5 °F 28.2 °F 30.3 in SSO 6.9 mph 11 mph 66.5% 0 in
05:39 38.5 °F 28.2 °F 30.3 in SSO 6.9 mph 11.5 mph 66% 0 in
05:44 38.8 °F 28 °F 30.3 in SSO 6.9 mph 12 mph 65.2% 0 in
05:49 39 °F 28.2 °F 30.3 in SO 7.2 mph 11 mph 65% 0 in
05:54 39 °F 28 °F 30.3 in SO 7.4 mph 10 mph 64.6% 0 in
05:59 39.2 °F 28 °F 30.3 in OSO 5.9 mph 9 mph 64% 0 in
06:04 39.4 °F 27.9 °F 30.3 in SO 5.2 mph 8 mph 63% 0 in
06:09 39.4 °F 27.9 °F 30.3 in SO 4.4 mph 6.9 mph 63% 0 in
06:14 39.4 °F 27.5 °F 30.3 in SO 4 mph 7.4 mph 62.3% 0 in
06:19 39.4 °F 27.5 °F 30.3 in SO 4.5 mph 8.1 mph 62% 0 in
06:24 39.4 °F 27.3 °F 30.3 in SSO 4.7 mph 8.1 mph 62% 0 in
06:29 39.6 °F 27.5 °F 30.3 in Sur 4.7 mph 8 mph 62% 0 in
06:34 39.2 °F 27.3 °F 30.3 in Sur 4.7 mph 7 mph 62% 0 in
06:39 38.8 °F 27.1 °F 30.3 in SSO 5 mph 8.1 mph 62.7% 0 in
06:44 38.7 °F 27.1 °F 30.3 in SO 5.2 mph 8 mph 63% 0 in
06:49 38.7 °F 27.1 °F 30.3 in SSO 4.4 mph 7 mph 63% 0 in
06:54 38.7 °F 27.1 °F 30.3 in SO 4 mph 8.1 mph 63% 0 in
06:59 38.8 °F 27.3 °F 30.3 in SO 4.2 mph 10.7 mph 63% 0 in
07:04 39 °F 27.1 °F 30.3 in SO 4.3 mph 11 mph 62% 0 in
07:09 39 °F 27.1 °F 30.3 in SO 4.9 mph 10.4 mph 62% 0 in
07:14 39 °F 27.1 °F 30.3 in SO 5.2 mph 10 mph 62% 0 in
07:19 39.2 °F 27.3 °F 30.3 in SO 5.7 mph 10.4 mph 62% 0 in
07:24 39.7 °F 27.3 °F 30.3 in SO 5.9 mph 10.7 mph 61% 0 in
07:29 40.5 °F 27.5 °F 30.3 in SO 6.1 mph 11 mph 59.8% 0 in
07:34 40.6 °F 27.3 °F 30.3 in OSO 6.2 mph 10 mph 59% 0 in
07:39 40.6 °F 27.3 °F 30.3 in OSO 5.2 mph 7 mph 59% 0 in
07:44 40.5 °F 27.3 °F 30.3 in SO 4.7 mph 7.4 mph 59.2% 0 in
07:49 40.5 °F 27.5 °F 30.3 in OSO 4.3 mph 7 mph 59.6% 0 in
07:54 40.5 °F 27.7 °F 30.3 in SO 4 mph 8.1 mph 60% 0 in
07:59 40.5 °F 27.7 °F 30.3 in SO 4.5 mph 8.1 mph 60% 0 in
08:04 40.5 °F 27.7 °F 30.3 in OSO 4.7 mph 8 mph 60% 0 in
08:09 40.6 °F 27.7 °F 30.3 in SO 4.5 mph 7 mph 60% 0 in
08:14 40.8 °F 27.9 °F 30.3 in Sur 4.3 mph 6.2 mph 59.6% 0 in
08:19 41.4 °F 27.9 °F 30.3 in Sur 4.5 mph 7.4 mph 58.6% 0 in
08:24 41.4 °F 27.7 °F 30.3 in Sur 4.7 mph 7.4 mph 58% 0 in
08:29 41.5 °F 27.7 °F 30.3 in SSE 5.2 mph 10 mph 58% 0 in
08:34 41 °F 27.3 °F 30.3 in SSE 5.4 mph 10.4 mph 58% 0 in
08:39 40.8 °F 27.1 °F 30.3 in Sur 6.3 mph 10 mph 58.2% 0 in
08:44 40.6 °F 27.3 °F 30.3 in SSE 6.9 mph 10.7 mph 59% 0 in
08:49 40.5 °F 27.3 °F 30.3 in Sur 6.5 mph 11 mph 59.3% 0 in
08:54 40.5 °F 27.7 °F 30.3 in SSE 6.2 mph 8.1 mph 60% 0 in
08:59 40.5 °F 27.7 °F 30.3 in SSO 5.7 mph 8.1 mph 60% 0 in
09:04 40.6 °F 27.9 °F 30.3 in SSO 5.4 mph 8.5 mph 60% 0 in
09:09 40.8 °F 28 °F 30.3 in SSO 5.4 mph 9 mph 59.9% 0 in
09:14 41.2 °F 27.9 °F 30.3 in SO 5.4 mph 9.7 mph 59% 0 in
09:19 41.4 °F 28 °F 30.3 in SO 5.3 mph 10 mph 58.6% 0 in
09:24 41.5 °F 27.9 °F 30.3 in OSO 5.2 mph 9 mph 58% 0 in
09:29 41.9 °F 28 °F 30.3 in SO 4.9 mph 7 mph 57.7% 0 in
09:34 42.3 °F 28 °F 30.3 in SO 4.7 mph 7 mph 57% 0 in
09:39 42.8 °F 28.2 °F 30.3 in SSO 4.5 mph 7 mph 56% 0 in
09:44 43.3 °F 28.4 °F 30.3 in SO 4.3 mph 7 mph 55.2% 0 in
09:49 44.1 °F 28.8 °F 30.3 in SSO 3.9 mph 8.5 mph 54.8% 0 in
09:54 44.8 °F 29.1 °F 30.3 in SSO 3.6 mph 9 mph 53.7% 0 in
09:59 45.5 °F 29.1 °F 30.3 in SSE 4.7 mph 11.5 mph 52.8% 0 in
10:04 45.3 °F 29.1 °F 30.3 in Sur 5.2 mph 12.7 mph 53% 0 in
10:09 45 °F 29.1 °F 30.3 in Sur 7 mph 13 mph 53.5% 0 in
10:14 44.8 °F 29.3 °F 30.3 in Sur 8.1 mph 12 mph 54.4% 0 in
10:19 44.2 °F 29.3 °F 30.3 in Sur 8.1 mph 12.7 mph 55.5% 0 in
10:24 44.2 °F 29.7 °F 30.3 in Sur 8.1 mph 13 mph 56% 0 in
10:29 44.8 °F 30 °F 30.3 in Sur 7.6 mph 13 mph 56.2% 0 in
10:34 45.1 °F 30.4 °F 30.3 in Sur 7.4 mph 12 mph 56% 0 in
10:39 45.9 °F 30.7 °F 30.3 in Sur 6.7 mph 9.2 mph 55.1% 0 in
10:44 46.6 °F 30.9 °F 30.3 in Sur 6.4 mph 10.4 mph 54.2% 0 in
10:49 47.1 °F 30.9 °F 30.3 in Sur 6.4 mph 10.4 mph 53% 0 in
10:54 48 °F 31.1 °F 30.3 in Sur 6.4 mph 12.5 mph 51.8% 0 in
10:59 49.1 °F 31.5 °F 30.3 in Sur 7.1 mph 13 mph 50.6% 0 in
11:04 49.8 °F 31.3 °F 30.3 in SSO 7.4 mph 12 mph 48.8% 0 in
11:09 50.5 °F 31.5 °F 30.3 in SSO 7.4 mph 10.7 mph 47.8% 0 in
11:14 51.3 °F 31.5 °F 30.3 in SSO 7.4 mph 11 mph 46.7% 0 in
11:19 51.8 °F 31.5 °F 30.3 in SSO 6.2 mph 9.2 mph 45.6% 0 in
11:24 52.2 °F 31.3 °F 30.3 in SSO 5.4 mph 9.2 mph 45% 0 in
11:29 52.3 °F 31.5 °F 30.3 in SO 5.3 mph 10.7 mph 44.7% 0 in
11:34 52.7 °F 31.3 °F 30.3 in SO 5.2 mph 12.7 mph 43.7% 0 in
11:39 53.1 °F 31.1 °F 30.3 in SO 5.8 mph 13 mph 43% 0 in
11:44 53.2 °F 31.1 °F 30.3 in SO 6.2 mph 13 mph 42.8% 0 in
11:49 53.6 °F 31.1 °F 30.3 in SO 6.3 mph 13 mph 41.9% 0 in
11:54 54 °F 30.9 °F 30.3 in OSO 6.4 mph 17.3 mph 41.4% 0 in
11:59 54.1 °F 30.6 °F 30.3 in OSO 7.1 mph 17 mph 40.6% 0 in
12:04 54.3 °F 30.6 °F 30.3 in OSO 7.4 mph 13 mph 40% 0 in
12:09 54.9 °F 30.7 °F 30.3 in SO 7.4 mph 13 mph 39.8% 0 in
12:14 55 °F 30.7 °F 30.3 in SO 7.4 mph 10.4 mph 39.6% 0 in
12:19 55.4 °F 30.9 °F 30.3 in SO 6.2 mph 9 mph 39.2% 0 in
12:24 55.8 °F 31.1 °F 30.3 in SO 5.4 mph 9 mph 39% 0 in
12:29 55.8 °F 30.7 °F 30.3 in SO 4.7 mph 9.2 mph 38.3% 0 in
12:34 55.6 °F 30.7 °F 30.3 in OSO 4.3 mph 9 mph 38.5% 0 in
12:39 55.8 °F 30.7 °F 30.3 in OSO 4.8 mph 9.2 mph 38.2% 0 in
12:44 56.1 °F 30.7 °F 30.3 in OSO 5.2 mph 9.2 mph 38% 0 in
12:49 56.3 °F 31.1 °F 30.3 in SSO 4.2 mph 9 mph 38% 0 in
12:54 56.7 °F 30.9 °F 30.3 in SSO 3.6 mph 9 mph 37.5% 0 in
12:59 56.8 °F 30.7 °F 30.3 in SSO 4.1 mph 10.4 mph 37% 0 in
13:04 56.8 °F 30.7 °F 30.3 in SO 4.3 mph 10 mph 37% 0 in
13:09 56.8 °F 30.6 °F 30.2 in OSO 4.5 mph 8.1 mph 36.8% 0 in
13:14 56.7 °F 30.7 °F 30.2 in OSO 4.7 mph 8 mph 37% 0 in
13:19 56.8 °F 30.7 °F 30.2 in OSO 4.3 mph 7 mph 36.8% 0 in
13:24 57.2 °F 30.4 °F 30.2 in OSO 4 mph 10.7 mph 36% 0 in
13:29 57.6 °F 30.7 °F 30.2 in OSO 4.2 mph 11 mph 36% 0 in
13:34 57.7 °F 30.9 °F 30.2 in SO 4.3 mph 11.5 mph 36% 0 in
13:39 58.1 °F 30.6 °F 30.2 in SSO 5.3 mph 12 mph 35% 0 in
13:44 58.3 °F 30.7 °F 30.2 in SSO 5.9 mph 9.2 mph 35% 0 in
13:49 58.5 °F 30.6 °F 30.2 in SSO 5.6 mph 10 mph 34.5% 0 in
13:54 58.5 °F 30.7 °F 30.2 in SO 5.4 mph 10.4 mph 34.8% 0 in
13:59 58.8 °F 30.9 °F 30.2 in SSO 5.3 mph 9.2 mph 34.5% 0 in
14:04 59.4 °F 30.7 °F 30.2 in SSO 5.2 mph 10.2 mph 33.9% 0 in
14:09 59.2 °F 30.7 °F 30.2 in SO 5.8 mph 10 mph 34% 0 in
14:14 59.4 °F 30.9 °F 30.2 in SSO 6.2 mph 11.5 mph 34% 0 in
14:19 59.5 °F 30.7 °F 30.2 in SO 6 mph 12 mph 33.4% 0 in
14:24 59.9 °F 30.6 °F 30.2 in SO 5.9 mph 11 mph 33% 0 in
14:29 60.3 °F 31.1 °F 30.2 in SO 5.5 mph 9.2 mph 33% 0 in
14:34 60.6 °F 30.9 °F 30.2 in SO 5.2 mph 9 mph 32.4% 0 in
14:39 61 °F 30.9 °F 30.2 in SO 4.8 mph 8.7 mph 32.1% 0 in
14:44 61 °F 30.9 °F 30.2 in SSO 4.7 mph 10.4 mph 32% 0 in
14:49 61.2 °F 30.9 °F 30.2 in SO 5 mph 10 mph 32% 0 in
14:54 61.3 °F 31.3 °F 30.2 in SSO 5.2 mph 9 mph 32% 0 in
14:59 61.5 °F 30.7 °F 30.2 in Sur 5.2 mph 8.5 mph 31.2% 0 in
15:04 61.5 °F 30.6 °F 30.2 in SSE 5.2 mph 9.2 mph 31% 0 in
15:09 61.7 °F 30.9 °F 30.2 in Sur 5.7 mph 9.7 mph 31.2% 0 in
15:14 61.9 °F 30.9 °F 30.2 in Sur 5.9 mph 10 mph 31.2% 0 in
15:19 62.1 °F 31.3 °F 30.2 in SSO 4.8 mph 7 mph 31.4% 0 in
15:24 62.4 °F 31.3 °F 30.2 in SSO 4.3 mph 8.5 mph 31% 0 in
15:29 62.4 °F 31.5 °F 30.2 in SSO 4.5 mph 9 mph 31% 0 in
15:34 62.6 °F 31.5 °F 30.2 in SSO 4.7 mph 8.5 mph 31% 0 in
15:39 62.6 °F 31.3 °F 30.2 in Sur 5 mph 9 mph 30.7% 0 in
15:44 62.8 °F 31.5 °F 30.2 in SSE 5.2 mph 8.1 mph 30.7% 0 in
15:49 63 °F 31.6 °F 30.2 in Sur 5.2 mph 8 mph 30.9% 0 in
15:54 63.1 °F 31.8 °F 30.2 in SSO 5.2 mph 6.2 mph 30.7% 0 in
15:59 63.3 °F 31.3 °F 30.2 in SO 4.4 mph 6.9 mph 30% 0 in
16:04 63.3 °F 31.3 °F 30.2 in SSO 4 mph 7 mph 30% 0 in
16:09 63.5 °F 31.5 °F 30.2 in SSO 4 mph 7.4 mph 30% 0 in
16:14 63.7 °F 31.6 °F 30.2 in SSE 4 mph 7.6 mph 30% 0 in
16:19 63.5 °F 31.5 °F 30.2 in Sur 4.2 mph 8 mph 30% 0 in
16:24 63.7 °F 32 °F 30.2 in Sur 4.3 mph 6 mph 30.3% 0 in
16:29 63.9 °F 31.8 °F 30.2 in SSE 4.1 mph 6.9 mph 30% 0 in
16:34 63.9 °F 31.8 °F 30.2 in SE 4 mph 7 mph 30% 0 in
16:39 63.9 °F 31.8 °F 30.2 in SSE 4.2 mph 6.9 mph 30.1% 0 in
16:44 63.9 °F 32 °F 30.2 in SSE 4.3 mph 7.4 mph 30.2% 0 in
16:49 63.9 °F 32 °F 30.2 in SSE 4.3 mph 7 mph 30.3% 0 in
16:54 63.9 °F 31.6 °F 30.2 in SSE 4.3 mph 7.4 mph 30% 0 in
16:59 63.7 °F 31.6 °F 30.2 in SE 4.3 mph 7 mph 30% 0 in
17:04 63.7 °F 32.2 °F 30.2 in SE 4.3 mph 6 mph 30.7% 0 in
17:09 63.7 °F 32.5 °F 30.2 in ESE 3.5 mph 6.4 mph 31% 0 in
17:14 63.5 °F 32.4 °F 30.2 in ESE 3.1 mph 7.6 mph 31% 0 in
17:19 63.1 °F 32 °F 30.2 in ESE 4.4 mph 8.1 mph 31% 0 in
17:24 63 °F 32.5 °F 30.2 in ESE 5.2 mph 8.1 mph 31.8% 0 in
17:29 62.8 °F 32.5 °F 30.2 in SE 4.8 mph 7 mph 32% 0 in
17:34 62.6 °F 32.2 °F 30.2 in SE 4.7 mph 6.9 mph 32% 0 in
17:39 62.4 °F 32.2 °F 30.2 in ESE 4.5 mph 7 mph 32% 0 in
17:44 62.2 °F 32.4 °F 30.2 in SE 4.3 mph 6 mph 32.3% 0 in
17:49 62.2 °F 32.7 °F 30.2 in SE 4.1 mph 6 mph 33% 0 in
17:54 62.1 °F 32.5 °F 30.2 in SE 4 mph 6 mph 33% 0 in
17:59 61.9 °F 32.7 °F 30.2 in SE 3.4 mph 5 mph 33.4% 0 in
18:04 61.7 °F 32.9 °F 30.2 in SE 3.1 mph 5 mph 34% 0 in
18:09 61.5 °F 32.9 °F 30.2 in SE 2.1 mph 2 mph 34% 0 in
18:14 61.2 °F 33.1 °F 30.2 in SE 1.4 mph 2.4 mph 34.6% 0 in
18:19 60.8 °F 32.9 °F 30.2 in SE 0.5 mph 2.3 mph 35% 0 in
18:24 60.4 °F 33.1 °F 30.2 in Calm   3.5 mph 35.6% 0 in
18:29 59.9 °F 33.1 °F 30.2 in ESE 1.2 mph 4.7 mph 36.4% 0 in
18:34 59.2 °F 33.3 °F 30.2 in ESE 2 mph 7.6 mph 37.7% 0 in
18:39 58.1 °F 33.6 °F 30.2 in SSO 3.7 mph 8.1 mph 39.4% 0 in
18:44 57.7 °F 34.5 °F 30.2 in SSO 4.7 mph 8 mph 41.7% 0 in
18:49 57.6 °F 35.2 °F 30.2 in SO 4 mph 6 mph 43% 0 in
18:54 57.4 °F 35.4 °F 30.2 in SO 3.6 mph 6.2 mph 43.5% 0 in
18:59 56.8 °F 36.1 °F 30.2 in SO 3.6 mph 7.6 mph 45.7% 0 in
19:04 56.7 °F 36.7 °F 30.2 in SO 3.6 mph 8.1 mph 47.2% 0 in
19:09 56.3 °F 36.9 °F 30.2 in OSO 3.6 mph 8 mph 48.3% 0 in
19:14 55.9 °F 37.2 °F 30.2 in SSO 3.6 mph 6.4 mph 49.4% 0 in
19:19 55.8 °F 37.2 °F 30.2 in SSO 3.6 mph 7 mph 50% 0 in
19:24 55.4 °F 37.6 °F 30.2 in SO 3.6 mph 6.9 mph 51% 0 in
19:29 55 °F 37.8 °F 30.2 in SO 3.2 mph 7 mph 51.9% 0 in
19:34 54.9 °F 37.8 °F 30.2 in SO 2.9 mph 9.2 mph 52.6% 0 in
19:39 54.5 °F 37.8 °F 30.2 in SO 3.8 mph 9 mph 53.1% 0 in
19:44 54.1 °F 37.9 °F 30.2 in SSO 4.3 mph 7 mph 54% 0 in
19:49 54 °F 37.9 °F 30.2 in SSO 4.1 mph 5.9 mph 54.6% 0 in
19:54 53.8 °F 37.9 °F 30.2 in Sur 4 mph 8.5 mph 55.1% 0 in
19:59 53.2 °F 37.9 °F 30.2 in SSO 4.5 mph 9.7 mph 56% 0 in
20:04 53.1 °F 38.1 °F 30.2 in SSO 4.7 mph 10 mph 57% 0 in
20:09 52.7 °F 37.9 °F 30.2 in SSO 4.5 mph 7 mph 57% 0 in
20:14 52.7 °F 38.1 °F 30.2 in SSO 4.3 mph 6 mph 57.8% 0 in
20:19 52.5 °F 38.1 °F 30.2 in SSO 3.4 mph 5.4 mph 58% 0 in
20:24 52.5 °F 38.1 °F 30.2 in Sur 2.9 mph 6.9 mph 58% 0 in
20:29 52.3 °F 38.3 °F 30.2 in Sur 3.4 mph 7 mph 58.6% 0 in
20:34 52.3 °F 38.3 °F 30.2 in Sur 3.6 mph 7 mph 59% 0 in
20:39 52.2 °F 38.1 °F 30.2 in Sur 3.6 mph 6 mph 59% 0 in
20:44 51.8 °F 38.3 °F 30.2 in Sur 3.6 mph 6 mph 59.8% 0 in
20:49 51.4 °F 38.3 °F 30.2 in Sur 2.6 mph 6 mph 60.5% 0 in
20:54 51.3 °F 38.3 °F 30.2 in Sur 2 mph 4 mph 61.2% 0 in
20:59 50.9 °F 38.5 °F 30.2 in Sur 2 mph 4.6 mph 62.3% 0 in
21:04 50.7 °F 38.7 °F 30.2 in SSO 2 mph 5 mph 63% 0 in
21:09 50.5 °F 38.5 °F 30.2 in SSO 2.2 mph 5 mph 63% 0 in
21:14 50.4 °F 38.1 °F 30.2 in SO 2.4 mph 4 mph 62.6% 0 in
21:19 49.8 °F 37.9 °F 30.2 in NO 2.2 mph 4.6 mph 63.3% 0 in
21:24 49.5 °F 37.9 °F 30.2 in ONO 2 mph 5 mph 64.4% 0 in
21:29 49.1 °F 37.9 °F 30.2 in OSO 1.9 mph 4.6 mph 65% 0 in
21:34 48.9 °F 37.8 °F 30.2 in OSO 1.8 mph 5 mph 65.2% 0 in
21:39 48.9 °F 38.1 °F 30.2 in OSO 2.2 mph 5 mph 66% 0 in
21:44 48.7 °F 37.9 °F 30.2 in OSO 2.4 mph 5 mph 66% 0 in
21:49 48.7 °F 38.3 °F 30.2 in OSO 2.2 mph 4.6 mph 66.9% 0 in
21:54 48.7 °F 38.3 °F 30.2 in SO 2 mph 5.2 mph 67% 0 in
21:59 48.7 °F 38.5 °F 30.2 in SSO 2.6 mph 5.2 mph 67.7% 0 in
22:04 48.6 °F 38.5 °F 30.2 in Sur 2.9 mph 5.8 mph 68% 0 in
22:09 48.4 °F 38.7 °F 30.2 in Sur 3.6 mph 6.2 mph 68.7% 0 in
22:14 48.4 °F 38.7 °F 30.2 in Sur 4 mph 6 mph 69% 0 in
22:19 48.2 °F 38.5 °F 30.2 in SSO 4 mph 6.4 mph 69% 0 in
22:24 48.2 °F 38.8 °F 30.2 in SSO 4 mph 7 mph 70% 0 in
22:29 48.2 °F 38.8 °F 30.2 in SSO 4 mph 6.2 mph 70% 0 in
22:34 48.4 °F 39 °F 30.2 in SSO 4 mph 6.9 mph 70% 0 in
22:39 48.4 °F 39 °F 30.2 in SSO 4 mph 7 mph 70% 0 in
22:44 48.4 °F 39 °F 30.2 in SO 4 mph 7.4 mph 69.9% 0 in
22:49 48.4 °F 38.7 °F 30.2 in SO 4.5 mph 8.1 mph 69% 0 in
22:54 48.4 °F 38.7 °F 30.2 in OSO 4.7 mph 8 mph 69% 0 in
22:59 48.4 °F 38.7 °F 30.2 in SO 4.4 mph 6.9 mph 69% 0 in
23:04 48.4 °F 38.3 °F 30.2 in SSO 4.3 mph 7.4 mph 68% 0 in
23:09 48.4 °F 38.3 °F 30.2 in SO 4.8 mph 7 mph 68% 0 in
23:14 48.2 °F 38.1 °F 30.2 in SO 5.2 mph 7 mph 68% 0 in
23:19 48 °F 38.1 °F 30.2 in SO 3.9 mph 6 mph 68.7% 0 in
23:24 47.8 °F 38.3 °F 30.2 in OSO 3.1 mph 8.1 mph 69% 0 in
23:29 47.8 °F 38.1 °F 30.2 in SO 3.7 mph 8 mph 69% 0 in
23:34 47.7 °F 37.9 °F 30.2 in SO 4 mph 7.6 mph 69% 0 in
23:39 47.5 °F 37.8 °F 30.2 in SO 3.8 mph 8.1 mph 69% 0 in
23:44 47.3 °F 37.6 °F 30.2 in SO 3.6 mph 8.1 mph 69% 0 in
23:49 47.1 °F 37.6 °F 30.2 in SSO 4.3 mph 8.1 mph 69.3% 0 in
23:54 46.9 °F 37.8 °F 30.2 in SSO 4.7 mph 7 mph 70.4% 0 in
23:59 46.8 °F 37.8 °F 30.2 in SSO 4.7 mph 8.1 mph 71% 0 in
Murcia-Puente Tocinos, Espa?a
Compliments of Weather Underground - 3.25 mb

La estación de MeteoMurcia.com, publica sus datos en los siguientes proyectos:

Weather Underground PWS IMURCIAP2 Meteoclimatic www.awekas.at

W3Counter
Web Analytics